Terminal Aerodrome Forecast
Issued by NWS

Home | Current Version | Previous Version | Text Only | Print | Product List | Glossary On
Versions: 1 2 3 4 5 6 7 8 9 10 11 12
634
FTUS44 KEPZ 110538
TAFTCS
TAF
KTCS 110538Z 1106/1206 33006KT P6SM SCT250
      TEMPO 1108/1112 34010G18KT
     FM112000 15006KT P6SM SCT250
     FM120400 30006KT P6SM FEW250=

USA.gov is the U.S. government's official web portal to all federal, state and local government web resources and services.